Aeroporto :
LOGIN :

Iscrizione | Disclaimer

   EN    FR    IT 

 










Sommario :    VFR   VFR Marginale   IFR   IFR Intensivo   IFR Molto Intensivo
Visibilità : 
Base nubi : 
>= 8 km
>= 3000ft
5 / 8 km
1000 / 3000 ft
1500m / 5 km
500 / 1000 ft
800 / 1500m
200 / 500 ft
< 800m
< 200 ft
Simboli :   Temporali  Nebbia  Neve Forte  Precipitazioni Forti  Vento > 20 kt
SIGMETs :   Varie  Temporali  Ghiacco  Turbolenza  Onda orograficha  Ceneri Vulcaniche






- Altitudine del aeroporto : 353 ft
- Codice IATA : LIN


LIML - Milano Linate

ULTIMO METAR :
  • 051120Z 25004KT 5000 -RA BR SCT010 BKN030 03/03 Q1001 NOSIG

METARs OBSOLETI :
  • 051050Z 23004KT 6000 -RA BKN008 03/02 Q1001 NOSIG
  • 051020Z 24004KT 220V280 6000 -RA BKN009 03/02 Q1001 NOSIG
  • 050950Z 24004KT 210V290 5000 -RA BR BKN009 03/02 Q1001 NOSIG
  • 050920Z 23004KT 4000 BR BKN005 03/02 Q1001 NOSIG
  • 050850Z 20004KT 3000 BR SCT003 SCT006 03/03 Q1001 NOSIG

TAF TAF LIML
Valido dal 05 a 12 ore il 06 a 12 ore UTC


051100Z 0512/0612 VRB05KT 3000 BR BKN015
TEMPO 0510/0524 RA
TEMPO 0608/0612 RA



MetMap, La meteo Aeronautica in un colpo d'occhio ! - Copyright ORBIFLY Dicembre 2007 - Disclaimer

ORBIFLY MET'MAP TEAM :

Programmazione e sviluppo : Alexandra Zaïnal
Concezione : Baudouin d'Aumeries
Aiuto per la programmazione : Marc-Olivier Méhu
Supporto tecnico e logistico : Manuel Goepfert
Aiuto per la traduzione : Arnaldo La Scala

Contatto : metmap@orbifly.com




FONTI E CREDITI :

   NOAA